sensor_id;sensor_type;location;lat;lon;timestamp;P1;durP1;ratioP1;P2;durP2;ratioP2
16642;SDS011;8435;52.184;5.406;2024-02-14T00:00:43;4.20;;;3.80;;
16642;SDS011;8435;52.184;5.406;2024-02-14T00:03:10;3.83;;;3.53;;
16642;SDS011;8435;52.184;5.406;2024-02-14T00:05:36;3.67;;;3.30;;
16642;SDS011;8435;52.184;5.406;2024-02-14T00:08:07;3.70;;;3.40;;
16642;SDS011;8435;52.184;5.406;2024-02-14T00:10:34;3.73;;;3.43;;
16642;SDS011;8435;52.184;5.406;2024-02-14T00:13:01;4.00;;;3.70;;
16642;SDS011;8435;52.184;5.406;2024-02-14T00:15:29;3.53;;;3.23;;
16642;SDS011;8435;52.184;5.406;2024-02-14T00:17:56;3.50;;;3.20;;
16642;SDS011;8435;52.184;5.406;2024-02-14T00:20:22;3.17;;;2.97;;
16642;SDS011;8435;52.184;5.406;2024-02-14T00:22:50;3.30;;;3.03;;
16642;SDS011;8435;52.184;5.406;2024-02-14T00:25:18;3.57;;;3.27;;
16642;SDS011;8435;52.184;5.406;2024-02-14T00:27:45;3.53;;;3.27;;
16642;SDS011;8435;52.184;5.406;2024-02-14T00:30:13;3.77;;;3.47;;
16642;SDS011;8435;52.184;5.406;2024-02-14T00:32:40;3.60;;;3.30;;
16642;SDS011;8435;52.184;5.406;2024-02-14T00:35:06;3.73;;;3.43;;
16642;SDS011;8435;52.184;5.406;2024-02-14T00:37:33;3.60;;;3.30;;
16642;SDS011;8435;52.184;5.406;2024-02-14T00:40:00;3.60;;;3.40;;
16642;SDS011;8435;52.184;5.406;2024-02-14T00:42:29;4.00;;;3.77;;
16642;SDS011;8435;52.184;5.406;2024-02-14T00:44:55;4.20;;;3.80;;
16642;SDS011;8435;52.184;5.406;2024-02-14T00:47:22;4.03;;;3.73;;
16642;SDS011;8435;52.184;5.406;2024-02-14T00:49:49;4.07;;;3.77;;
16642;SDS011;8435;52.184;5.406;2024-02-14T00:52:16;4.70;;;4.40;;
16642;SDS011;8435;52.184;5.406;2024-02-14T00:54:43;4.23;;;3.93;;
16642;SDS011;8435;52.184;5.406;2024-02-14T00:57:10;4.40;;;4.10;;
16642;SDS011;8435;52.184;5.406;2024-02-14T00:59:39;4.20;;;3.90;;
16642;SDS011;8435;52.184;5.406;2024-02-14T01:02:05;4.37;;;4.07;;
16642;SDS011;8435;52.184;5.406;2024-02-14T01:04:32;4.83;;;4.53;;
16642;SDS011;8435;52.184;5.406;2024-02-14T01:07:01;5.87;;;5.27;;
16642;SDS011;8435;52.184;5.406;2024-02-14T01:09:28;5.70;;;5.20;;
16642;SDS011;8435;52.184;5.406;2024-02-14T01:11:54;5.40;;;5.00;;
16642;SDS011;8435;52.184;5.406;2024-02-14T01:14:21;6.23;;;5.73;;
16642;SDS011;8435;52.184;5.406;2024-02-14T01:16:50;6.10;;;5.60;;
16642;SDS011;8435;52.184;5.406;2024-02-14T01:19:17;6.53;;;5.93;;
16642;SDS011;8435;52.184;5.406;2024-02-14T01:21:45;6.20;;;5.80;;
16642;SDS011;8435;52.184;5.406;2024-02-14T01:24:13;6.77;;;6.17;;
16642;SDS011;8435;52.184;5.406;2024-02-14T01:26:40;6.60;;;6.10;;
16642;SDS011;8435;52.184;5.406;2024-02-14T01:29:06;6.70;;;6.20;;
16642;SDS011;8435;52.184;5.406;2024-02-14T01:31:34;6.93;;;6.43;;
16642;SDS011;8435;52.184;5.406;2024-02-14T01:34:02;6.83;;;6.23;;
16642;SDS011;8435;52.184;5.406;2024-02-14T01:36:29;7.40;;;6.80;;
16642;SDS011;8435;52.184;5.406;2024-02-14T01:38:56;7.50;;;6.93;;
16642;SDS011;8435;52.184;5.406;2024-02-14T01:41:23;7.30;;;6.70;;
16642;SDS011;8435;52.184;5.406;2024-02-14T01:43:49;7.10;;;6.60;;
16642;SDS011;8435;52.184;5.406;2024-02-14T01:46:16;7.30;;;6.70;;
16642;SDS011;8435;52.184;5.406;2024-02-14T01:48:44;7.30;;;6.70;;
16642;SDS011;8435;52.184;5.406;2024-02-14T01:51:13;7.00;;;6.50;;
16642;SDS011;8435;52.184;5.406;2024-02-14T01:53:42;7.70;;;7.10;;
16642;SDS011;8435;52.184;5.406;2024-02-14T01:56:09;6.63;;;6.13;;
16642;SDS011;8435;52.184;5.406;2024-02-14T01:58:36;7.30;;;6.70;;
16642;SDS011;8435;52.184;5.406;2024-02-14T02:01:03;7.73;;;7.13;;
16642;SDS011;8435;52.184;5.406;2024-02-14T02:03:30;7.57;;;6.97;;
16642;SDS011;8435;52.184;5.406;2024-02-14T02:06:00;7.63;;;7.13;;
16642;SDS011;8435;52.184;5.406;2024-02-14T02:08:29;6.83;;;6.33;;
16642;SDS011;8435;52.184;5.406;2024-02-14T02:10:57;7.27;;;6.77;;
16642;SDS011;8435;52.184;5.406;2024-02-14T02:13:24;7.83;;;7.13;;
16642;SDS011;8435;52.184;5.406;2024-02-14T02:15:51;8.30;;;7.70;;
16642;SDS011;8435;52.184;5.406;2024-02-14T02:18:18;7.27;;;6.67;;
16642;SDS011;8435;52.184;5.406;2024-02-14T02:20:45;7.17;;;6.63;;
16642;SDS011;8435;52.184;5.406;2024-02-14T02:23:13;7.17;;;6.57;;
16642;SDS011;8435;52.184;5.406;2024-02-14T02:25:40;7.03;;;6.53;;
16642;SDS011;8435;52.184;5.406;2024-02-14T02:28:08;6.33;;;5.93;;
16642;SDS011;8435;52.184;5.406;2024-02-14T02:30:34;7.17;;;6.57;;
16642;SDS011;8435;52.184;5.406;2024-02-14T02:33:01;6.73;;;6.23;;
16642;SDS011;8435;52.184;5.406;2024-02-14T02:35:29;6.27;;;5.77;;
16642;SDS011;8435;52.184;5.406;2024-02-14T02:37:55;6.77;;;6.20;;
16642;SDS011;8435;52.184;5.406;2024-02-14T02:40:24;5.93;;;5.53;;
16642;SDS011;8435;52.184;5.406;2024-02-14T02:42:52;6.53;;;6.03;;
16642;SDS011;8435;52.184;5.406;2024-02-14T02:45:19;6.30;;;5.90;;
16642;SDS011;8435;52.184;5.406;2024-02-14T02:47:45;6.53;;;5.97;;
16642;SDS011;8435;52.184;5.406;2024-02-14T02:50:12;6.60;;;6.10;;
16642;SDS011;8435;52.184;5.406;2024-02-14T02:52:39;6.60;;;6.10;;
16642;SDS011;8435;52.184;5.406;2024-02-14T02:55:07;6.07;;;5.67;;
16642;SDS011;8435;52.184;5.406;2024-02-14T02:57:35;6.20;;;5.77;;
16642;SDS011;8435;52.184;5.406;2024-02-14T03:00:04;5.97;;;5.57;;
16642;SDS011;8435;52.184;5.406;2024-02-14T03:02:34;6.33;;;5.83;;
16642;SDS011;8435;52.184;5.406;2024-02-14T03:05:03;5.60;;;5.20;;
16642;SDS011;8435;52.184;5.406;2024-02-14T03:07:31;6.30;;;5.90;;
16642;SDS011;8435;52.184;5.406;2024-02-14T03:09:58;5.77;;;5.37;;
16642;SDS011;8435;52.184;5.406;2024-02-14T03:12:25;5.87;;;5.37;;
16642;SDS011;8435;52.184;5.406;2024-02-14T03:14:57;6.23;;;5.73;;
16642;SDS011;8435;52.184;5.406;2024-02-14T03:17:24;5.40;;;4.97;;
16642;SDS011;8435;52.184;5.406;2024-02-14T03:19:51;6.17;;;5.67;;
16642;SDS011;8435;52.184;5.406;2024-02-14T03:22:18;6.10;;;5.60;;
16642;SDS011;8435;52.184;5.406;2024-02-14T03:24:44;5.90;;;5.40;;
16642;SDS011;8435;52.184;5.406;2024-02-14T03:27:12;5.93;;;5.53;;
16642;SDS011;8435;52.184;5.406;2024-02-14T03:29:39;7.10;;;6.50;;
16642;SDS011;8435;52.184;5.406;2024-02-14T03:32:07;7.30;;;6.50;;
16642;SDS011;8435;52.184;5.406;2024-02-14T03:34:34;6.67;;;6.17;;
16642;SDS011;8435;52.184;5.406;2024-02-14T03:37:01;7.20;;;6.50;;
16642;SDS011;8435;52.184;5.406;2024-02-14T03:39:29;8.47;;;7.77;;
16642;SDS011;8435;52.184;5.406;2024-02-14T03:41:56;7.90;;;7.30;;
16642;SDS011;8435;52.184;5.406;2024-02-14T03:44:26;8.23;;;7.53;;
16642;SDS011;8435;52.184;5.406;2024-02-14T03:46:53;7.97;;;7.27;;
16642;SDS011;8435;52.184;5.406;2024-02-14T03:49:21;10.03;;;8.37;;
16642;SDS011;8435;52.184;5.406;2024-02-14T03:51:47;8.90;;;8.20;;
16642;SDS011;8435;52.184;5.406;2024-02-14T03:54:18;9.43;;;8.63;;
16642;SDS011;8435;52.184;5.406;2024-02-14T03:56:44;8.93;;;8.13;;
16642;SDS011;8435;52.184;5.406;2024-02-14T03:59:11;8.90;;;8.10;;
16642;SDS011;8435;52.184;5.406;2024-02-14T04:01:43;8.57;;;7.73;;
16642;SDS011;8435;52.184;5.406;2024-02-14T04:04:10;8.97;;;8.17;;
16642;SDS011;8435;52.184;5.406;2024-02-14T04:06:38;9.17;;;8.27;;
16642;SDS011;8435;52.184;5.406;2024-02-14T04:09:05;9.07;;;8.23;;
16642;SDS011;8435;52.184;5.406;2024-02-14T04:11:32;9.23;;;8.43;;
16642;SDS011;8435;52.184;5.406;2024-02-14T04:13:59;10.00;;;9.03;;
16642;SDS011;8435;52.184;5.406;2024-02-14T04:16:26;10.03;;;9.13;;
16642;SDS011;8435;52.184;5.406;2024-02-14T04:18:53;10.23;;;9.23;;
16642;SDS011;8435;52.184;5.406;2024-02-14T04:21:21;10.63;;;9.57;;
16642;SDS011;8435;52.184;5.406;2024-02-14T04:23:49;10.67;;;9.70;;
16642;SDS011;8435;52.184;5.406;2024-02-14T04:26:19;11.60;;;10.40;;
16642;SDS011;8435;52.184;5.406;2024-02-14T04:28:46;11.63;;;10.03;;
16642;SDS011;8435;52.184;5.406;2024-02-14T04:31:13;12.13;;;11.03;;
16642;SDS011;8435;52.184;5.406;2024-02-14T04:33:40;13.93;;;10.40;;
16642;SDS011;8435;52.184;5.406;2024-02-14T04:36:08;12.40;;;10.40;;
16642;SDS011;8435;52.184;5.406;2024-02-14T04:38:36;12.17;;;10.97;;
16642;SDS011;8435;52.184;5.406;2024-02-14T04:41:04;11.80;;;10.40;;
16642;SDS011;8435;52.184;5.406;2024-02-14T04:43:31;12.03;;;10.77;;
16642;SDS011;8435;52.184;5.406;2024-02-14T04:45:58;13.83;;;11.10;;
16642;SDS011;8435;52.184;5.406;2024-02-14T04:48:24;12.97;;;10.57;;
16642;SDS011;8435;52.184;5.406;2024-02-14T04:50:52;12.27;;;10.03;;
16642;SDS011;8435;52.184;5.406;2024-02-14T04:53:19;12.03;;;10.63;;
16642;SDS011;8435;52.184;5.406;2024-02-14T04:55:46;10.97;;;9.87;;
16642;SDS011;8435;52.184;5.406;2024-02-14T04:58:14;12.47;;;10.63;;
16642;SDS011;8435;52.184;5.406;2024-02-14T05:00:41;11.37;;;10.20;;
16642;SDS011;8435;52.184;5.406;2024-02-14T05:03:07;12.83;;;10.60;;
16642;SDS011;8435;52.184;5.406;2024-02-14T05:05:35;10.90;;;9.77;;
16642;SDS011;8435;52.184;5.406;2024-02-14T05:08:02;11.67;;;10.47;;
16642;SDS011;8435;52.184;5.406;2024-02-14T05:10:29;14.43;;;10.70;;
16642;SDS011;8435;52.184;5.406;2024-02-14T05:12:56;12.47;;;10.73;;
16642;SDS011;8435;52.184;5.406;2024-02-14T05:15:24;11.90;;;10.50;;
16642;SDS011;8435;52.184;5.406;2024-02-14T05:17:51;15.27;;;11.57;;
16642;SDS011;8435;52.184;5.406;2024-02-14T05:20:18;12.57;;;10.73;;
16642;SDS011;8435;52.184;5.406;2024-02-14T05:22:45;14.07;;;11.47;;
16642;SDS011;8435;52.184;5.406;2024-02-14T05:25:12;12.37;;;11.13;;
16642;SDS011;8435;52.184;5.406;2024-02-14T05:27:39;15.47;;;11.37;;
16642;SDS011;8435;52.184;5.406;2024-02-14T05:30:06;13.60;;;11.10;;
16642;SDS011;8435;52.184;5.406;2024-02-14T05:32:35;13.03;;;10.83;;
16642;SDS011;8435;52.184;5.406;2024-02-14T05:35:02;12.10;;;10.17;;
16642;SDS011;8435;52.184;5.406;2024-02-14T05:37:31;12.20;;;10.97;;
16642;SDS011;8435;52.184;5.406;2024-02-14T05:39:58;11.23;;;10.00;;
16642;SDS011;8435;52.184;5.406;2024-02-14T05:42:25;11.43;;;10.20;;
16642;SDS011;8435;52.184;5.406;2024-02-14T05:44:51;11.87;;;9.87;;
16642;SDS011;8435;52.184;5.406;2024-02-14T05:47:18;12.13;;;10.63;;
16642;SDS011;8435;52.184;5.406;2024-02-14T05:49:46;10.40;;;9.43;;
16642;SDS011;8435;52.184;5.406;2024-02-14T05:52:13;12.63;;;10.10;;
16642;SDS011;8435;52.184;5.406;2024-02-14T05:54:41;10.97;;;9.80;;
16642;SDS011;8435;52.184;5.406;2024-02-14T05:57:08;11.40;;;9.70;;
16642;SDS011;8435;52.184;5.406;2024-02-14T05:59:35;10.23;;;9.23;;
16642;SDS011;8435;52.184;5.406;2024-02-14T06:02:01;9.70;;;8.80;;
16642;SDS011;8435;52.184;5.406;2024-02-14T06:04:33;9.10;;;8.30;;
16642;SDS011;8435;52.184;5.406;2024-02-14T06:07:02;9.27;;;8.43;;
16642;SDS011;8435;52.184;5.406;2024-02-14T06:09:30;9.67;;;8.67;;
16642;SDS011;8435;52.184;5.406;2024-02-14T06:11:57;9.20;;;8.33;;
16642;SDS011;8435;52.184;5.406;2024-02-14T06:14:24;7.70;;;7.10;;
16642;SDS011;8435;52.184;5.406;2024-02-14T06:16:51;8.20;;;7.50;;
16642;SDS011;8435;52.184;5.406;2024-02-14T06:19:18;8.20;;;7.50;;
16642;SDS011;8435;52.184;5.406;2024-02-14T06:21:44;7.73;;;7.03;;
16642;SDS011;8435;52.184;5.406;2024-02-14T06:24:12;8.03;;;7.33;;
16642;SDS011;8435;52.184;5.406;2024-02-14T06:26:39;7.97;;;7.27;;
16642;SDS011;8435;52.184;5.406;2024-02-14T06:29:07;8.07;;;7.37;;
16642;SDS011;8435;52.184;5.406;2024-02-14T06:31:33;8.40;;;7.60;;
16642;SDS011;8435;52.184;5.406;2024-02-14T06:34:00;8.37;;;7.67;;
16642;SDS011;8435;52.184;5.406;2024-02-14T06:36:27;8.17;;;7.47;;
16642;SDS011;8435;52.184;5.406;2024-02-14T06:38:54;7.87;;;7.17;;
16642;SDS011;8435;52.184;5.406;2024-02-14T06:41:22;8.30;;;7.70;;
16642;SDS011;8435;52.184;5.406;2024-02-14T06:43:49;7.23;;;6.63;;
16642;SDS011;8435;52.184;5.406;2024-02-14T06:46:16;7.90;;;7.20;;
16642;SDS011;8435;52.184;5.406;2024-02-14T06:48:43;7.03;;;6.43;;
16642;SDS011;8435;52.184;5.406;2024-02-14T06:51:10;6.97;;;6.37;;
16642;SDS011;8435;52.184;5.406;2024-02-14T06:53:37;7.80;;;7.10;;
16642;SDS011;8435;52.184;5.406;2024-02-14T06:56:04;7.57;;;6.93;;
16642;SDS011;8435;52.184;5.406;2024-02-14T06:58:32;8.40;;;7.60;;
16642;SDS011;8435;52.184;5.406;2024-02-14T07:00:59;8.33;;;7.57;;
16642;SDS011;8435;52.184;5.406;2024-02-14T07:03:26;8.50;;;7.80;;
16642;SDS011;8435;52.184;5.406;2024-02-14T07:05:53;9.70;;;8.60;;
16642;SDS011;8435;52.184;5.406;2024-02-14T07:08:19;9.67;;;8.90;;
16642;SDS011;8435;52.184;5.406;2024-02-14T07:10:46;12.07;;;10.97;;
16642;SDS011;8435;52.184;5.406;2024-02-14T07:13:13;11.83;;;10.83;;
16642;SDS011;8435;52.184;5.406;2024-02-14T07:15:41;11.43;;;10.33;;
16642;SDS011;8435;52.184;5.406;2024-02-14T07:18:08;12.00;;;10.83;;
16642;SDS011;8435;52.184;5.406;2024-02-14T07:20:38;12.03;;;10.93;;
16642;SDS011;8435;52.184;5.406;2024-02-14T07:23:05;13.07;;;10.93;;
16642;SDS011;8435;52.184;5.406;2024-02-14T07:25:33;11.83;;;10.73;;
16642;SDS011;8435;52.184;5.406;2024-02-14T07:27:59;12.47;;;11.27;;
16642;SDS011;8435;52.184;5.406;2024-02-14T07:30:26;12.07;;;10.93;;
16642;SDS011;8435;52.184;5.406;2024-02-14T07:32:54;14.17;;;12.90;;
16642;SDS011;8435;52.184;5.406;2024-02-14T07:35:21;14.70;;;12.70;;
16642;SDS011;8435;52.184;5.406;2024-02-14T07:37:48;13.97;;;12.50;;
16642;SDS011;8435;52.184;5.406;2024-02-14T07:40:15;13.80;;;12.50;;
16642;SDS011;8435;52.184;5.406;2024-02-14T07:42:42;13.03;;;11.93;;
16642;SDS011;8435;52.184;5.406;2024-02-14T07:45:09;12.50;;;11.50;;
16642;SDS011;8435;52.184;5.406;2024-02-14T07:47:36;13.90;;;12.63;;
16642;SDS011;8435;52.184;5.406;2024-02-14T07:50:06;13.20;;;11.90;;
16642;SDS011;8435;52.184;5.406;2024-02-14T07:52:33;11.90;;;10.87;;
16642;SDS011;8435;52.184;5.406;2024-02-14T07:55:01;12.13;;;11.07;;
16642;SDS011;8435;52.184;5.406;2024-02-14T07:57:28;12.97;;;11.67;;
16642;SDS011;8435;52.184;5.406;2024-02-14T07:59:55;14.13;;;12.83;;
16642;SDS011;8435;52.184;5.406;2024-02-14T08:02:21;14.57;;;13.20;;
16642;SDS011;8435;52.184;5.406;2024-02-14T08:04:48;13.63;;;12.43;;
16642;SDS011;8435;52.184;5.406;2024-02-14T08:07:16;14.27;;;12.97;;
16642;SDS011;8435;52.184;5.406;2024-02-14T08:09:43;12.70;;;11.50;;
16642;SDS011;8435;52.184;5.406;2024-02-14T08:12:10;12.60;;;11.40;;
16642;SDS011;8435;52.184;5.406;2024-02-14T08:14:36;13.50;;;12.20;;
16642;SDS011;8435;52.184;5.406;2024-02-14T08:17:03;12.63;;;11.43;;
16642;SDS011;8435;52.184;5.406;2024-02-14T08:19:30;12.17;;;11.07;;
16642;SDS011;8435;52.184;5.406;2024-02-14T08:21:57;12.17;;;11.13;;
16642;SDS011;8435;52.184;5.406;2024-02-14T08:24:27;12.10;;;11.03;;
16642;SDS011;8435;52.184;5.406;2024-02-14T08:26:54;12.33;;;11.33;;
16642;SDS011;8435;52.184;5.406;2024-02-14T08:29:20;12.70;;;11.60;;
16642;SDS011;8435;52.184;5.406;2024-02-14T08:31:49;12.50;;;11.40;;
16642;SDS011;8435;52.184;5.406;2024-02-14T08:34:16;13.43;;;12.33;;
16642;SDS011;8435;52.184;5.406;2024-02-14T08:36:43;12.97;;;11.80;;
16642;SDS011;8435;52.184;5.406;2024-02-14T08:39:10;13.53;;;12.23;;
16642;SDS011;8435;52.184;5.406;2024-02-14T08:41:39;12.93;;;11.73;;
16642;SDS011;8435;52.184;5.406;2024-02-14T08:44:08;13.33;;;12.23;;
16642;SDS011;8435;52.184;5.406;2024-02-14T08:46:35;12.47;;;11.33;;
16642;SDS011;8435;52.184;5.406;2024-02-14T08:49:02;12.93;;;11.73;;
16642;SDS011;8435;52.184;5.406;2024-02-14T08:51:33;13.47;;;12.33;;
16642;SDS011;8435;52.184;5.406;2024-02-14T08:54:00;12.80;;;11.60;;
16642;SDS011;8435;52.184;5.406;2024-02-14T08:56:30;12.13;;;11.03;;
16642;SDS011;8435;52.184;5.406;2024-02-14T08:58:59;12.00;;;10.93;;
16642;SDS011;8435;52.184;5.406;2024-02-14T09:01:27;11.50;;;10.60;;
16642;SDS011;8435;52.184;5.406;2024-02-14T09:03:54;12.50;;;11.33;;
16642;SDS011;8435;52.184;5.406;2024-02-14T09:06:20;10.90;;;9.90;;
16642;SDS011;8435;52.184;5.406;2024-02-14T09:08:47;11.10;;;10.10;;
16642;SDS011;8435;52.184;5.406;2024-02-14T09:11:15;10.73;;;9.83;;
16642;SDS011;8435;52.184;5.406;2024-02-14T09:13:42;9.87;;;9.07;;
16642;SDS011;8435;52.184;5.406;2024-02-14T09:16:10;11.13;;;10.23;;
16642;SDS011;8435;52.184;5.406;2024-02-14T09:18:39;10.17;;;9.37;;
16642;SDS011;8435;52.184;5.406;2024-02-14T09:21:05;10.13;;;9.33;;
16642;SDS011;8435;52.184;5.406;2024-02-14T09:23:32;9.57;;;8.67;;
16642;SDS011;8435;52.184;5.406;2024-02-14T09:25:59;9.27;;;8.57;;
16642;SDS011;8435;52.184;5.406;2024-02-14T09:28:26;9.77;;;8.83;;
16642;SDS011;8435;52.184;5.406;2024-02-14T09:30:53;9.87;;;9.07;;
16642;SDS011;8435;52.184;5.406;2024-02-14T09:33:21;9.50;;;8.70;;
16642;SDS011;8435;52.184;5.406;2024-02-14T09:35:48;8.83;;;8.13;;
16642;SDS011;8435;52.184;5.406;2024-02-14T09:38:17;8.67;;;8.00;;
16642;SDS011;8435;52.184;5.406;2024-02-14T09:40:43;9.03;;;8.33;;
16642;SDS011;8435;52.184;5.406;2024-02-14T09:43:12;9.53;;;8.63;;
16642;SDS011;8435;52.184;5.406;2024-02-14T09:45:49;9.53;;;8.73;;
16642;SDS011;8435;52.184;5.406;2024-02-14T09:48:17;9.43;;;8.57;;
16642;SDS011;8435;52.184;5.406;2024-02-14T09:50:47;8.93;;;8.13;;
16642;SDS011;8435;52.184;5.406;2024-02-14T09:53:15;8.30;;;7.70;;
16642;SDS011;8435;52.184;5.406;2024-02-14T09:55:43;8.10;;;7.40;;
16642;SDS011;8435;52.184;5.406;2024-02-14T09:58:12;8.93;;;8.23;;
16642;SDS011;8435;52.184;5.406;2024-02-14T10:00:41;8.77;;;8.07;;
16642;SDS011;8435;52.184;5.406;2024-02-14T10:03:08;9.93;;;9.13;;
16642;SDS011;8435;52.184;5.406;2024-02-14T10:05:36;10.77;;;9.90;;
16642;SDS011;8435;52.184;5.406;2024-02-14T10:08:04;11.70;;;10.70;;
16642;SDS011;8435;52.184;5.406;2024-02-14T10:10:31;12.17;;;11.10;;
16642;SDS011;8435;52.184;5.406;2024-02-14T10:13:00;12.93;;;11.80;;
16642;SDS011;8435;52.184;5.406;2024-02-14T10:15:30;13.93;;;12.87;;
16642;SDS011;8435;52.184;5.406;2024-02-14T10:17:57;14.90;;;13.50;;
16642;SDS011;8435;52.184;5.406;2024-02-14T10:20:24;15.50;;;14.07;;
16642;SDS011;8435;52.184;5.406;2024-02-14T10:22:51;14.47;;;13.17;;
16642;SDS011;8435;52.184;5.406;2024-02-14T10:25:27;14.40;;;13.00;;
16642;SDS011;8435;52.184;5.406;2024-02-14T10:27:54;13.03;;;11.93;;
16642;SDS011;8435;52.184;5.406;2024-02-14T10:30:22;13.27;;;12.03;;
16642;SDS011;8435;52.184;5.406;2024-02-14T10:32:50;12.97;;;11.87;;
16642;SDS011;8435;52.184;5.406;2024-02-14T10:35:16;11.53;;;10.50;;
16642;SDS011;8435;52.184;5.406;2024-02-14T10:37:46;12.27;;;11.17;;
16642;SDS011;8435;52.184;5.406;2024-02-14T10:40:15;10.87;;;9.87;;
16642;SDS011;8435;52.184;5.406;2024-02-14T10:42:43;9.90;;;9.10;;
16642;SDS011;8435;52.184;5.406;2024-02-14T10:45:10;10.33;;;9.33;;
16642;SDS011;8435;52.184;5.406;2024-02-14T10:47:38;10.73;;;9.83;;
16642;SDS011;8435;52.184;5.406;2024-02-14T10:50:09;9.67;;;8.90;;
16642;SDS011;8435;52.184;5.406;2024-02-14T10:52:40;9.83;;;8.93;;
16642;SDS011;8435;52.184;5.406;2024-02-14T10:55:09;9.53;;;8.73;;
16642;SDS011;8435;52.184;5.406;2024-02-14T10:57:37;9.03;;;8.30;;
16642;SDS011;8435;52.184;5.406;2024-02-14T11:00:08;9.87;;;9.07;;
16642;SDS011;8435;52.184;5.406;2024-02-14T11:02:38;9.53;;;8.73;;
16642;SDS011;8435;52.184;5.406;2024-02-14T11:05:07;8.57;;;7.80;;
16642;SDS011;8435;52.184;5.406;2024-02-14T11:07:43;9.10;;;8.33;;
16642;SDS011;8435;52.184;5.406;2024-02-14T11:10:12;8.50;;;7.83;;
16642;SDS011;8435;52.184;5.406;2024-02-14T11:12:40;7.87;;;7.33;;
16642;SDS011;8435;52.184;5.406;2024-02-14T11:15:12;8.17;;;7.57;;
16642;SDS011;8435;52.184;5.406;2024-02-14T11:17:43;8.07;;;7.33;;
16642;SDS011;8435;52.184;5.406;2024-02-14T11:20:16;7.80;;;7.20;;
16642;SDS011;8435;52.184;5.406;2024-02-14T11:22:54;7.97;;;7.27;;
16642;SDS011;8435;52.184;5.406;2024-02-14T11:25:25;6.63;;;6.07;;
16642;SDS011;8435;52.184;5.406;2024-02-14T11:27:56;6.53;;;6.03;;
16642;SDS011;8435;52.184;5.406;2024-02-14T11:30:28;6.97;;;6.47;;
16642;SDS011;8435;52.184;5.406;2024-02-14T11:33:15;6.77;;;6.27;;
16642;SDS011;8435;52.184;5.406;2024-02-14T11:35:45;6.30;;;5.80;;
16642;SDS011;8435;52.184;5.406;2024-02-14T11:38:12;6.13;;;5.63;;
16642;SDS011;8435;52.184;5.406;2024-02-14T11:40:39;6.57;;;5.97;;
16642;SDS011;8435;52.184;5.406;2024-02-14T11:43:10;6.60;;;6.10;;
16642;SDS011;8435;52.184;5.406;2024-02-14T11:45:39;7.03;;;6.43;;
16642;SDS011;8435;52.184;5.406;2024-02-14T11:48:07;6.77;;;6.27;;
16642;SDS011;8435;52.184;5.406;2024-02-14T11:50:35;7.60;;;6.87;;
16642;SDS011;8435;52.184;5.406;2024-02-14T11:53:02;7.63;;;6.93;;
16642;SDS011;8435;52.184;5.406;2024-02-14T11:55:31;7.33;;;6.73;;
16642;SDS011;8435;52.184;5.406;2024-02-14T11:57:58;7.47;;;6.87;;
16642;SDS011;8435;52.184;5.406;2024-02-14T12:00:24;7.40;;;6.80;;
16642;SDS011;8435;52.184;5.406;2024-02-14T12:02:53;7.67;;;7.17;;
16642;SDS011;8435;52.184;5.406;2024-02-14T12:05:20;8.30;;;7.57;;
16642;SDS011;8435;52.184;5.406;2024-02-14T12:07:47;7.93;;;7.40;;
16642;SDS011;8435;52.184;5.406;2024-02-14T12:10:14;7.70;;;7.03;;
16642;SDS011;8435;52.184;5.406;2024-02-14T12:12:44;8.30;;;7.67;;
16642;SDS011;8435;52.184;5.406;2024-02-14T12:15:11;9.93;;;9.13;;
16642;SDS011;8435;52.184;5.406;2024-02-14T12:17:40;9.57;;;8.77;;
16642;SDS011;8435;52.184;5.406;2024-02-14T12:20:09;11.23;;;10.33;;
16642;SDS011;8435;52.184;5.406;2024-02-14T12:22:38;11.20;;;10.40;;
16642;SDS011;8435;52.184;5.406;2024-02-14T12:25:06;12.40;;;11.30;;
16642;SDS011;8435;52.184;5.406;2024-02-14T12:27:36;11.80;;;11.00;;
16642;SDS011;8435;52.184;5.406;2024-02-14T12:30:03;12.17;;;11.17;;
16642;SDS011;8435;52.184;5.406;2024-02-14T12:32:30;12.10;;;11.10;;
16642;SDS011;8435;52.184;5.406;2024-02-14T12:34:58;12.73;;;11.73;;
16642;SDS011;8435;52.184;5.406;2024-02-14T12:37:26;10.60;;;9.70;;
16642;SDS011;8435;52.184;5.406;2024-02-14T12:39:53;10.53;;;9.73;;
16642;SDS011;8435;52.184;5.406;2024-02-14T12:42:20;9.40;;;8.70;;
16642;SDS011;8435;52.184;5.406;2024-02-14T12:44:50;8.87;;;8.27;;
16642;SDS011;8435;52.184;5.406;2024-02-14T12:47:18;8.03;;;7.33;;
16642;SDS011;8435;52.184;5.406;2024-02-14T12:49:46;7.93;;;7.37;;
16642;SDS011;8435;52.184;5.406;2024-02-14T12:52:14;7.03;;;6.53;;
16642;SDS011;8435;52.184;5.406;2024-02-14T12:54:42;6.83;;;6.33;;
16642;SDS011;8435;52.184;5.406;2024-02-14T12:57:09;6.80;;;6.20;;
16642;SDS011;8435;52.184;5.406;2024-02-14T12:59:36;6.40;;;5.90;;
16642;SDS011;8435;52.184;5.406;2024-02-14T13:02:03;5.73;;;5.33;;
16642;SDS011;8435;52.184;5.406;2024-02-14T13:04:31;5.80;;;5.40;;
16642;SDS011;8435;52.184;5.406;2024-02-14T13:06:58;5.73;;;5.30;;
16642;SDS011;8435;52.184;5.406;2024-02-14T13:09:25;4.93;;;4.63;;
16642;SDS011;8435;52.184;5.406;2024-02-14T13:11:54;4.67;;;4.27;;
16642;SDS011;8435;52.184;5.406;2024-02-14T13:14:21;4.70;;;4.40;;
16642;SDS011;8435;52.184;5.406;2024-02-14T13:16:48;3.83;;;3.63;;
16642;SDS011;8435;52.184;5.406;2024-02-14T13:19:15;3.73;;;3.53;;
16642;SDS011;8435;52.184;5.406;2024-02-14T13:21:42;4.10;;;3.80;;
16642;SDS011;8435;52.184;5.406;2024-02-14T13:24:10;3.83;;;3.57;;
16642;SDS011;8435;52.184;5.406;2024-02-14T13:26:38;4.33;;;4.03;;
16642;SDS011;8435;52.184;5.406;2024-02-14T13:29:07;5.40;;;5.00;;
16642;SDS011;8435;52.184;5.406;2024-02-14T13:31:34;4.67;;;4.37;;
16642;SDS011;8435;52.184;5.406;2024-02-14T13:34:00;5.20;;;4.80;;
16642;SDS011;8435;52.184;5.406;2024-02-14T13:36:28;5.70;;;5.30;;
16642;SDS011;8435;52.184;5.406;2024-02-14T13:38:55;5.50;;;5.20;;
16642;SDS011;8435;52.184;5.406;2024-02-14T13:41:22;5.63;;;5.13;;
16642;SDS011;8435;52.184;5.406;2024-02-14T13:43:49;5.47;;;5.17;;
16642;SDS011;8435;52.184;5.406;2024-02-14T13:46:17;5.90;;;5.50;;
16642;SDS011;8435;52.184;5.406;2024-02-14T13:48:44;5.07;;;4.60;;
16642;SDS011;8435;52.184;5.406;2024-02-14T13:51:11;4.87;;;4.57;;
16642;SDS011;8435;52.184;5.406;2024-02-14T13:53:38;5.57;;;5.17;;
16642;SDS011;8435;52.184;5.406;2024-02-14T13:56:05;5.00;;;4.70;;
16642;SDS011;8435;52.184;5.406;2024-02-14T13:58:32;5.07;;;4.67;;
16642;SDS011;8435;52.184;5.406;2024-02-14T14:00:59;5.13;;;4.73;;
16642;SDS011;8435;52.184;5.406;2024-02-14T14:03:27;4.80;;;4.40;;
16642;SDS011;8435;52.184;5.406;2024-02-14T14:05:55;4.53;;;4.23;;
16642;SDS011;8435;52.184;5.406;2024-02-14T14:08:22;5.10;;;4.80;;
16642;SDS011;8435;52.184;5.406;2024-02-14T14:10:49;4.30;;;3.90;;
16642;SDS011;8435;52.184;5.406;2024-02-14T14:13:16;3.87;;;3.57;;
16642;SDS011;8435;52.184;5.406;2024-02-14T14:15:43;4.23;;;3.93;;
16642;SDS011;8435;52.184;5.406;2024-02-14T14:18:09;4.00;;;3.80;;
16642;SDS011;8435;52.184;5.406;2024-02-14T14:20:38;4.20;;;3.90;;
16642;SDS011;8435;52.184;5.406;2024-02-14T14:23:06;4.13;;;3.83;;
16642;SDS011;8435;52.184;5.406;2024-02-14T14:25:34;4.03;;;3.73;;
16642;SDS011;8435;52.184;5.406;2024-02-14T14:28:02;4.10;;;3.80;;
16642;SDS011;8435;52.184;5.406;2024-02-14T14:30:29;4.37;;;4.07;;
16642;SDS011;8435;52.184;5.406;2024-02-14T14:32:56;4.43;;;4.13;;
16642;SDS011;8435;52.184;5.406;2024-02-14T14:35:23;4.33;;;4.03;;
16642;SDS011;8435;52.184;5.406;2024-02-14T14:37:51;4.90;;;4.50;;
16642;SDS011;8435;52.184;5.406;2024-02-14T14:40:19;4.23;;;4.03;;
16642;SDS011;8435;52.184;5.406;2024-02-14T14:42:46;4.60;;;4.30;;
16642;SDS011;8435;52.184;5.406;2024-02-14T14:45:13;4.80;;;4.50;;
16642;SDS011;8435;52.184;5.406;2024-02-14T14:47:40;5.10;;;4.70;;
16642;SDS011;8435;52.184;5.406;2024-02-14T14:50:07;5.00;;;4.60;;
16642;SDS011;8435;52.184;5.406;2024-02-14T14:52:34;5.33;;;4.93;;
16642;SDS011;8435;52.184;5.406;2024-02-14T14:55:02;5.27;;;4.87;;